createdAt,value
2019-05-13T16:41:52.343Z,22.63
2019-05-13T16:42:31.698Z,22.60
2019-05-13T16:43:08.960Z,22.69
2019-05-13T16:43:47.650Z,22.80
2019-05-13T16:44:24.803Z,22.79
2019-05-13T16:45:02.189Z,22.68
2019-05-13T16:45:41.658Z,22.61
2019-05-13T16:46:22.892Z,22.50
2019-05-13T16:47:01.495Z,22.38
2019-05-13T16:47:55.797Z,22.16
2019-05-13T16:48:21.652Z,21.94
2019-05-13T16:49:01.368Z,21.65
2019-05-13T16:49:38.520Z,21.43
2019-05-13T16:50:16.367Z,21.36
2019-05-13T16:50:53.594Z,21.26
2019-05-13T16:51:31.607Z,21.10
2019-05-13T16:52:12.527Z,20.98
2019-05-13T16:52:51.202Z,20.89
2019-05-13T16:53:28.035Z,20.59
2019-05-13T16:54:05.333Z,20.59
2019-05-13T16:54:42.978Z,20.45
2019-05-13T16:55:21.991Z,20.45
2019-05-13T16:56:01.514Z,20.40
2019-05-13T16:56:42.048Z,20.31
2019-05-13T16:57:19.623Z,20.17
2019-05-13T16:57:57.453Z,19.99
2019-05-13T16:58:33.856Z,19.99
2019-05-13T16:59:10.442Z,19.84
2019-05-13T16:59:48.292Z,19.84
2019-05-13T17:00:26.430Z,19.84
2019-05-13T17:01:04.275Z,19.74
2019-05-13T17:01:42.543Z,19.74
2019-05-13T17:02:19.035Z,19.69
2019-05-13T17:02:57.289Z,19.53
2019-05-13T17:03:36.345Z,19.53
2019-05-13T17:04:13.347Z,19.47
2019-05-13T17:04:52.036Z,19.40
2019-05-13T17:05:29.307Z,19.30
2019-05-13T17:06:07.279Z,19.21
2019-05-13T17:06:44.379Z,19.18
2019-05-13T17:07:23.508Z,19.15
2019-05-13T17:08:02.125Z,19.05
2019-05-13T17:08:43.307Z,19.05
2019-05-13T17:09:22.447Z,19.07
2019-05-13T17:10:03.689Z,19.03
2019-05-13T17:10:41.999Z,19.00
2019-05-13T17:11:20.290Z,19.01
2019-05-13T17:11:56.409Z,19.03
2019-05-13T17:12:33.286Z,18.97
2019-05-13T17:13:11.658Z,18.92
2019-05-13T17:13:48.644Z,18.96
2019-05-13T17:14:25.467Z,19.05
